sensor_id;sensor_type;location;lat;lon;timestamp;pressure;altitude;pressure_sealevel;temperature;humidity
77450;BME280;66536;53.150;18.172;2023-04-24T03:53:49;100206.95;;;12.93;80.48
77450;BME280;66536;53.150;18.172;2023-04-24T05:04:41;100163.06;;;13.66;79.38
77450;BME280;66536;53.150;18.172;2023-04-24T05:07:07;100156.45;;;13.77;79.01
77450;BME280;66536;53.150;18.172;2023-04-24T05:09:35;100153.17;;;13.88;78.72
77450;BME280;66536;53.150;18.172;2023-04-24T05:12:03;100154.56;;;14.02;78.42
77450;BME280;66536;53.150;18.172;2023-04-24T05:14:33;100158.56;;;14.19;78.19
77450;BME280;66536;53.150;18.172;2023-04-24T05:16:59;100158.61;;;14.38;77.97
77450;BME280;66536;53.150;18.172;2023-04-24T05:19:38;100153.71;;;14.51;77.42
77450;BME280;66536;53.150;18.172;2023-04-24T05:22:05;100152.31;;;14.61;77.22
77450;BME280;66536;53.150;18.172;2023-04-24T05:24:33;100150.99;;;14.65;76.86
77450;BME280;66536;53.150;18.172;2023-04-24T05:27:20;100150.96;;;14.67;76.92
77450;BME280;66536;53.150;18.172;2023-04-24T05:29:48;100149.33;;;14.71;76.76
77450;BME280;66536;53.150;18.172;2023-04-24T05:32:14;100148.28;;;14.75;76.74
77450;BME280;66536;53.150;18.172;2023-04-24T05:34:44;100149.08;;;14.87;76.54
77450;BME280;66536;53.150;18.172;2023-04-24T05:37:11;100148.78;;;15.01;76.32
77450;BME280;66536;53.150;18.172;2023-04-24T05:39:40;100146.92;;;15.09;75.98
77450;BME280;66536;53.150;18.172;2023-04-24T05:42:08;100144.75;;;15.10;75.93
77450;BME280;66536;53.150;18.172;2023-04-24T05:44:56;100150.38;;;15.17;76.03
77450;BME280;66536;53.150;18.172;2023-04-24T05:47:22;100148.35;;;15.25;75.67
77450;BME280;66536;53.150;18.172;2023-04-24T05:49:50;100148.67;;;15.33;75.38
77450;BME280;66536;53.150;18.172;2023-04-24T05:52:16;100148.64;;;15.46;75.12
77450;BME280;66536;53.150;18.172;2023-04-24T05:55:01;100149.88;;;15.67;74.68
77450;BME280;66536;53.150;18.172;2023-04-24T05:57:30;100148.44;;;15.87;74.20
77450;BME280;66536;53.150;18.172;2023-04-24T06:00:04;100144.74;;;16.06;73.81
77450;BME280;66536;53.150;18.172;2023-04-24T06:02:39;100143.78;;;16.24;73.44
77450;BME280;66536;53.150;18.172;2023-04-24T06:05:07;100145.82;;;16.41;73.06
77450;BME280;66536;53.150;18.172;2023-04-24T06:07:40;100145.00;;;16.54;72.50
77450;BME280;66536;53.150;18.172;2023-04-24T06:10:07;100145.84;;;16.63;72.06
77450;BME280;66536;53.150;18.172;2023-04-24T06:12:38;100149.95;;;16.68;71.94
77450;BME280;66536;53.150;18.172;2023-04-24T06:15:10;100150.74;;;16.75;71.76
77450;BME280;66536;53.150;18.172;2023-04-24T06:17:48;100145.94;;;16.81;71.63
77450;BME280;66536;53.150;18.172;2023-04-24T06:20:17;100146.98;;;16.85;71.52
77450;BME280;66536;53.150;18.172;2023-04-24T06:22:43;100143.80;;;16.88;71.32
77450;BME280;66536;53.150;18.172;2023-04-24T06:25:14;100136.81;;;16.92;71.34
77450;BME280;66536;53.150;18.172;2023-04-24T06:27:46;100136.40;;;16.97;70.77
77450;BME280;66536;53.150;18.172;2023-04-24T06:30:20;100128.91;;;16.95;70.68
77450;BME280;66536;53.150;18.172;2023-04-24T06:32:47;100128.33;;;16.92;70.23
77450;BME280;66536;53.150;18.172;2023-04-24T06:35:15;100127.55;;;16.90;70.19
77450;BME280;66536;53.150;18.172;2023-04-24T06:37:47;100127.23;;;16.95;70.15
77450;BME280;66536;53.150;18.172;2023-04-24T06:40:13;100125.26;;;17.01;69.98
77450;BME280;66536;53.150;18.172;2023-04-24T06:42:41;100121.16;;;17.15;69.80
77450;BME280;66536;53.150;18.172;2023-04-24T06:45:14;100118.63;;;17.35;69.44
77450;BME280;66536;53.150;18.172;2023-04-24T06:47:42;100118.80;;;17.55;68.89
77450;BME280;66536;53.150;18.172;2023-04-24T06:50:11;100115.98;;;17.70;68.52
77450;BME280;66536;53.150;18.172;2023-04-24T06:52:37;100117.16;;;17.82;68.26
77450;BME280;66536;53.150;18.172;2023-04-24T06:55:05;100115.08;;;17.90;67.98
77450;BME280;66536;53.150;18.172;2023-04-24T06:57:32;100116.85;;;17.93;67.90
77450;BME280;66536;53.150;18.172;2023-04-24T06:59:59;100114.76;;;17.95;67.68
77450;BME280;66536;53.150;18.172;2023-04-24T07:02:28;100112.08;;;17.95;67.20
77450;BME280;66536;53.150;18.172;2023-04-24T07:05:08;100112.03;;;17.94;67.18
77450;BME280;66536;53.150;18.172;2023-04-24T07:07:55;100114.45;;;17.94;67.13
77450;BME280;66536;53.150;18.172;2023-04-24T07:10:30;100114.29;;;17.92;66.56
77450;BME280;66536;53.150;18.172;2023-04-24T07:13:01;100114.48;;;17.91;66.25
77450;BME280;66536;53.150;18.172;2023-04-24T07:15:36;100109.92;;;17.97;66.17
77450;BME280;66536;53.150;18.172;2023-04-24T07:18:08;100112.39;;;18.07;65.32
77450;BME280;66536;53.150;18.172;2023-04-24T07:20:34;100112.45;;;18.19;65.23
77450;BME280;66536;53.150;18.172;2023-04-24T07:23:16;100109.77;;;18.31;64.47
77450;BME280;66536;53.150;18.172;2023-04-24T07:25:43;100102.23;;;18.51;64.01
77450;BME280;66536;53.150;18.172;2023-04-24T07:28:19;100103.80;;;18.74;63.72
77450;BME280;66536;53.150;18.172;2023-04-24T07:30:51;100100.71;;;18.88;62.78
77450;BME280;66536;53.150;18.172;2023-04-24T07:33:26;100102.16;;;18.97;62.55
77450;BME280;66536;53.150;18.172;2023-04-24T07:35:54;100103.76;;;19.07;61.77
77450;BME280;66536;53.150;18.172;2023-04-24T07:38:28;100106.01;;;19.13;61.48
77450;BME280;66536;53.150;18.172;2023-04-24T07:41:03;100106.94;;;19.21;61.06
77450;BME280;66536;53.150;18.172;2023-04-24T07:43:29;100102.05;;;19.23;60.26
77450;BME280;66536;53.150;18.172;2023-04-24T07:46:01;100105.40;;;19.23;59.98
77450;BME280;66536;53.150;18.172;2023-04-24T07:48:37;100106.39;;;19.28;60.36
77450;BME280;66536;53.150;18.172;2023-04-24T07:51:31;100104.09;;;19.37;59.84
77450;BME280;66536;53.150;18.172;2023-04-24T07:54:05;100098.58;;;19.47;59.75
77450;BME280;66536;53.150;18.172;2023-04-24T07:56:33;100094.24;;;19.59;59.31
77450;BME280;66536;53.150;18.172;2023-04-24T07:59:04;100098.11;;;19.66;58.76
77450;BME280;66536;53.150;18.172;2023-04-24T08:01:33;100097.76;;;19.75;58.58
77450;BME280;66536;53.150;18.172;2023-04-24T08:04:00;100094.91;;;19.84;57.95
77450;BME280;66536;53.150;18.172;2023-04-24T08:06:29;100095.79;;;19.94;57.66
77450;BME280;66536;53.150;18.172;2023-04-24T08:09:15;100097.38;;;20.07;57.24
77450;BME280;66536;53.150;18.172;2023-04-24T08:11:45;100096.10;;;20.21;57.29
77450;BME280;66536;53.150;18.172;2023-04-24T08:14:11;100099.27;;;20.40;56.60
77450;BME280;66536;53.150;18.172;2023-04-24T08:16:46;100092.23;;;20.50;55.33
77450;BME280;66536;53.150;18.172;2023-04-24T08:19:19;100092.08;;;20.53;55.12
77450;BME280;66536;53.150;18.172;2023-04-24T08:21:45;100097.96;;;20.57;54.52
77450;BME280;66536;53.150;18.172;2023-04-24T08:24:17;100100.42;;;20.60;53.95
77450;BME280;66536;53.150;18.172;2023-04-24T08:26:46;100099.03;;;20.63;54.19
77450;BME280;66536;53.150;18.172;2023-04-24T08:29:30;100100.98;;;20.65;54.11
77450;BME280;66536;53.150;18.172;2023-04-24T08:32:05;100098.76;;;20.67;54.45
77450;BME280;66536;53.150;18.172;2023-04-24T08:34:41;100095.54;;;20.74;54.13
77450;BME280;66536;53.150;18.172;2023-04-24T08:37:10;100091.32;;;20.81;53.84
77450;BME280;66536;53.150;18.172;2023-04-24T08:39:37;100088.01;;;20.75;53.03
77450;BME280;66536;53.150;18.172;2023-04-24T08:42:05;100086.78;;;20.63;52.50
77450;BME280;66536;53.150;18.172;2023-04-24T08:44:36;100088.88;;;20.63;52.89
77450;BME280;66536;53.150;18.172;2023-04-24T08:47:03;100083.79;;;20.69;51.25
77450;BME280;66536;53.150;18.172;2023-04-24T08:49:30;100082.20;;;20.69;50.67
77450;BME280;66536;53.150;18.172;2023-04-24T08:52:21;100090.79;;;20.68;51.17
77450;BME280;66536;53.150;18.172;2023-04-24T08:55:07;100089.33;;;20.78;51.14
77450;BME280;66536;53.150;18.172;2023-04-24T08:57:37;100086.01;;;20.88;49.91
77450;BME280;66536;53.150;18.172;2023-04-24T09:00:07;100085.70;;;20.90;49.63
77450;BME280;66536;53.150;18.172;2023-04-24T09:02:34;100089.81;;;20.90;49.78
77450;BME280;66536;53.150;18.172;2023-04-24T09:05:03;100093.90;;;20.90;50.04
77450;BME280;66536;53.150;18.172;2023-04-24T09:07:30;100095.39;;;20.86;49.48
77450;BME280;66536;53.150;18.172;2023-04-24T09:10:05;100095.16;;;20.85;49.94
77450;BME280;66536;53.150;18.172;2023-04-24T09:12:35;100092.38;;;20.88;48.94
77450;BME280;66536;53.150;18.172;2023-04-24T09:15:25;100091.95;;;20.78;48.96
77450;BME280;66536;53.150;18.172;2023-04-24T09:17:59;100093.21;;;20.71;48.96
77450;BME280;66536;53.150;18.172;2023-04-24T09:21:04;100095.20;;;20.68;49.45
77450;BME280;66536;53.150;18.172;2023-04-24T09:23:33;100097.00;;;20.61;49.50
77450;BME280;66536;53.150;18.172;2023-04-24T09:26:02;100097.66;;;20.49;49.90
77450;BME280;66536;53.150;18.172;2023-04-24T09:28:57;100100.19;;;20.37;50.31
77450;BME280;66536;53.150;18.172;2023-04-24T09:31:23;100096.50;;;20.18;50.36
77450;BME280;66536;53.150;18.172;2023-04-24T09:33:56;100095.77;;;19.95;50.76
77450;BME280;66536;53.150;18.172;2023-04-24T09:36:29;100094.56;;;19.72;51.17
77450;BME280;66536;53.150;18.172;2023-04-24T09:39:00;100086.83;;;19.61;51.43
77450;BME280;66536;53.150;18.172;2023-04-24T09:41:54;100086.09;;;19.56;51.64
77450;BME280;66536;53.150;18.172;2023-04-24T09:44:24;100081.65;;;19.60;51.82
77450;BME280;66536;53.150;18.172;2023-04-24T09:46:53;100081.90;;;19.70;52.48
77450;BME280;66536;53.150;18.172;2023-04-24T09:49:27;100077.59;;;19.79;52.88
77450;BME280;66536;53.150;18.172;2023-04-24T09:52:05;100072.27;;;19.88;53.58
77450;BME280;66536;53.150;18.172;2023-04-24T09:55:13;100067.34;;;20.12;53.16
77450;BME280;66536;53.150;18.172;2023-04-24T09:57:53;100065.83;;;20.46;52.56
77450;BME280;66536;53.150;18.172;2023-04-24T10:00:40;100056.98;;;20.83;51.68
77450;BME280;66536;53.150;18.172;2023-04-24T10:03:35;100057.28;;;21.23;51.05
77450;BME280;66536;53.150;18.172;2023-04-24T10:06:04;100055.14;;;21.63;50.72
77450;BME280;66536;53.150;18.172;2023-04-24T10:08:35;100053.40;;;22.12;49.92
77450;BME280;66536;53.150;18.172;2023-04-24T10:11:04;100047.03;;;22.62;49.17
77450;BME280;66536;53.150;18.172;2023-04-24T10:13:35;100047.05;;;22.95;48.29
77450;BME280;66536;53.150;18.172;2023-04-24T10:16:24;100042.19;;;22.98;47.95
77450;BME280;66536;53.150;18.172;2023-04-24T10:18:53;100040.78;;;23.00;47.91
77450;BME280;66536;53.150;18.172;2023-04-24T10:21:24;100037.52;;;23.03;47.72
77450;BME280;66536;53.150;18.172;2023-04-24T10:23:57;100038.86;;;23.10;47.56
77450;BME280;66536;53.150;18.172;2023-04-24T10:26:26;100040.70;;;23.03;47.41
77450;BME280;66536;53.150;18.172;2023-04-24T10:28:54;100041.20;;;22.81;46.97
77450;BME280;66536;53.150;18.172;2023-04-24T10:31:22;100036.66;;;22.74;47.42
77450;BME280;66536;53.150;18.172;2023-04-24T10:33:51;100034.75;;;22.77;47.15
77450;BME280;66536;53.150;18.172;2023-04-24T10:36:22;100036.66;;;22.91;46.54
77450;BME280;66536;53.150;18.172;2023-04-24T10:38:52;100041.48;;;23.09;45.60
77450;BME280;66536;53.150;18.172;2023-04-24T10:41:18;100043.78;;;23.18;45.03
77450;BME280;66536;53.150;18.172;2023-04-24T10:44:04;100042.35;;;23.30;45.17
77450;BME280;66536;53.150;18.172;2023-04-24T10:46:31;100042.80;;;23.47;44.81
77450;BME280;66536;53.150;18.172;2023-04-24T10:48:57;100047.50;;;23.62;44.62
77450;BME280;66536;53.150;18.172;2023-04-24T10:51:45;100049.02;;;23.75;43.54
77450;BME280;66536;53.150;18.172;2023-04-24T10:54:26;100044.69;;;23.81;42.84
77450;BME280;66536;53.150;18.172;2023-04-24T10:59:46;100040.52;;;24.14;42.72
77450;BME280;66536;53.150;18.172;2023-04-24T11:02:16;100049.72;;;24.26;42.52
77450;BME280;66536;53.150;18.172;2023-04-24T11:04:42;100048.70;;;24.28;42.07
77450;BME280;66536;53.150;18.172;2023-04-24T11:07:09;100045.44;;;24.24;41.39
77450;BME280;66536;53.150;18.172;2023-04-24T11:09:36;100048.76;;;24.14;41.83
77450;BME280;66536;53.150;18.172;2023-04-24T11:12:08;100048.77;;;24.16;41.75
77450;BME280;66536;53.150;18.172;2023-04-24T11:15:00;100050.06;;;24.19;42.36
77450;BME280;66536;53.150;18.172;2023-04-24T11:17:31;100050.05;;;24.21;41.77
77450;BME280;66536;53.150;18.172;2023-04-24T11:20:01;100049.16;;;24.08;41.53
77450;BME280;66536;53.150;18.172;2023-04-24T11:22:35;100058.11;;;23.94;41.59
77450;BME280;66536;53.150;18.172;2023-04-24T11:25:03;100056.59;;;23.69;41.32
77450;BME280;66536;53.150;18.172;2023-04-24T11:27:42;100059.11;;;23.42;41.55
77450;BME280;66536;53.150;18.172;2023-04-24T11:30:10;100063.37;;;23.25;41.61
77450;BME280;66536;53.150;18.172;2023-04-24T11:32:39;100059.42;;;23.08;41.46
77450;BME280;66536;53.150;18.172;2023-04-24T11:35:17;100062.48;;;23.05;41.95
77450;BME280;66536;53.150;18.172;2023-04-24T11:37:46;100056.48;;;23.09;41.87
77450;BME280;66536;53.150;18.172;2023-04-24T11:40:17;100061.92;;;23.19;41.89
77450;BME280;66536;53.150;18.172;2023-04-24T11:42:47;100067.10;;;23.33;41.60
77450;BME280;66536;53.150;18.172;2023-04-24T11:45:33;100057.83;;;23.52;41.45
77450;BME280;66536;53.150;18.172;2023-04-24T11:47:59;100056.36;;;23.65;41.35
77450;BME280;66536;53.150;18.172;2023-04-24T11:50:26;100054.06;;;23.91;41.09
77450;BME280;66536;53.150;18.172;2023-04-24T11:52:54;100052.98;;;24.16;40.77
77450;BME280;66536;53.150;18.172;2023-04-24T11:55:24;100052.09;;;24.14;40.53
77450;BME280;66536;53.150;18.172;2023-04-24T11:57:56;100055.56;;;23.98;40.91
77450;BME280;66536;53.150;18.172;2023-04-24T12:00:26;100051.33;;;23.74;40.73
77450;BME280;66536;53.150;18.172;2023-04-24T12:03:07;100049.45;;;23.51;41.00
77450;BME280;66536;53.150;18.172;2023-04-24T12:05:36;100046.53;;;23.24;41.34
77450;BME280;66536;53.150;18.172;2023-04-24T12:08:02;100049.16;;;23.06;41.88
77450;BME280;66536;53.150;18.172;2023-04-24T12:10:30;100045.63;;;23.06;41.96
77450;BME280;66536;53.150;18.172;2023-04-24T12:12:57;100044.14;;;23.22;41.75
77450;BME280;66536;53.150;18.172;2023-04-24T12:15:24;100037.64;;;23.47;41.62
77450;BME280;66536;53.150;18.172;2023-04-24T12:17:51;100037.17;;;23.61;41.29
77450;BME280;66536;53.150;18.172;2023-04-24T12:20:24;100036.28;;;23.40;41.02
77450;BME280;66536;53.150;18.172;2023-04-24T12:22:53;100036.98;;;23.18;41.67
77450;BME280;66536;53.150;18.172;2023-04-24T12:25:29;100033.58;;;23.24;41.90
77450;BME280;66536;53.150;18.172;2023-04-24T12:28:08;100025.02;;;23.37;41.30
77450;BME280;66536;53.150;18.172;2023-04-24T12:30:42;100017.54;;;23.37;41.12
77450;BME280;66536;53.150;18.172;2023-04-24T12:33:10;100011.84;;;23.38;40.34
77450;BME280;66536;53.150;18.172;2023-04-24T12:35:36;100014.36;;;23.50;40.93
77450;BME280;66536;53.150;18.172;2023-04-24T12:38:11;100012.33;;;23.69;40.87
77450;BME280;66536;53.150;18.172;2023-04-24T12:40:45;100009.62;;;23.99;40.59
77450;BME280;66536;53.150;18.172;2023-04-24T12:43:15;100010.42;;;24.41;40.00
77450;BME280;66536;53.150;18.172;2023-04-24T12:45:44;100002.29;;;24.56;37.99
77450;BME280;66536;53.150;18.172;2023-04-24T12:48:12;99999.56;;;24.58;39.36
77450;BME280;66536;53.150;18.172;2023-04-24T12:50:40;99996.81;;;24.68;38.74
77450;BME280;66536;53.150;18.172;2023-04-24T12:53:09;99991.02;;;24.75;38.29
77450;BME280;66536;53.150;18.172;2023-04-24T12:55:38;99990.87;;;24.67;37.79
77450;BME280;66536;53.150;18.172;2023-04-24T12:58:04;99995.23;;;24.34;37.92
77450;BME280;66536;53.150;18.172;2023-04-24T13:00:31;99986.79;;;24.14;37.53
77450;BME280;66536;53.150;18.172;2023-04-24T13:02:57;99985.13;;;23.85;36.91
77450;BME280;66536;53.150;18.172;2023-04-24T13:05:43;99982.30;;;23.81;37.58
77450;BME280;66536;53.150;18.172;2023-04-24T13:08:09;99979.31;;;23.87;37.20
77450;BME280;66536;53.150;18.172;2023-04-24T13:10:36;99977.55;;;23.93;36.98
77450;BME280;66536;53.150;18.172;2023-04-24T13:13:03;99975.02;;;23.86;35.68
77450;BME280;66536;53.150;18.172;2023-04-24T13:15:29;99971.87;;;23.66;35.58
77450;BME280;66536;53.150;18.172;2023-04-24T13:17:55;99980.41;;;23.45;35.96
77450;BME280;66536;53.150;18.172;2023-04-24T13:20:22;99975.34;;;23.24;35.89
77450;BME280;66536;53.150;18.172;2023-04-24T13:22:48;99973.11;;;23.03;36.37
77450;BME280;66536;53.150;18.172;2023-04-24T13:25:14;99971.26;;;22.89;36.92
77450;BME280;66536;53.150;18.172;2023-04-24T13:27:42;99967.08;;;22.77;37.02
77450;BME280;66536;53.150;18.172;2023-04-24T13:30:27;99972.43;;;22.68;37.61
77450;BME280;66536;53.150;18.172;2023-04-24T13:33:12;99974.65;;;22.66;37.75
77450;BME280;66536;53.150;18.172;2023-04-24T13:35:56;99970.02;;;22.64;37.39
77450;BME280;66536;53.150;18.172;2023-04-24T13:38:23;99974.52;;;22.52;38.18
77450;BME280;66536;53.150;18.172;2023-04-24T13:40:49;99967.16;;;22.40;39.23
77450;BME280;66536;53.150;18.172;2023-04-24T13:43:15;99968.59;;;22.31;39.88
77450;BME280;66536;53.150;18.172;2023-04-24T13:45:42;99964.53;;;22.38;40.41
77450;BME280;66536;53.150;18.172;2023-04-24T13:48:08;99966.41;;;22.64;40.52
77450;BME280;66536;53.150;18.172;2023-04-24T13:50:52;99962.69;;;22.98;40.55
77450;BME280;66536;53.150;18.172;2023-04-24T13:53:18;99961.80;;;23.24;40.36
77450;BME280;66536;53.150;18.172;2023-04-24T13:55:46;99956.65;;;23.35;40.02
77450;BME280;66536;53.150;18.172;2023-04-24T13:58:15;99954.67;;;23.31;40.27
77450;BME280;66536;53.150;18.172;2023-04-24T14:00:45;99956.48;;;23.20;40.58
77450;BME280;66536;53.150;18.172;2023-04-24T14:03:11;99958.88;;;22.94;40.89
77450;BME280;66536;53.150;18.172;2023-04-24T14:05:37;99953.04;;;22.69;41.46
77450;BME280;66536;53.150;18.172;2023-04-24T14:08:04;99955.45;;;22.48;42.03
77450;BME280;66536;53.150;18.172;2023-04-24T14:10:30;99953.25;;;22.31;42.58
77450;BME280;66536;53.150;18.172;2023-04-24T14:12:58;99951.83;;;22.20;43.26
77450;BME280;66536;53.150;18.172;2023-04-24T14:15:24;99951.25;;;22.15;43.67
77450;BME280;66536;53.150;18.172;2023-04-24T14:17:50;99952.98;;;22.18;44.17
77450;BME280;66536;53.150;18.172;2023-04-24T14:20:17;99951.48;;;22.21;44.42
77450;BME280;66536;53.150;18.172;2023-04-24T14:22:43;99944.46;;;22.28;44.72
77450;BME280;66536;53.150;18.172;2023-04-24T14:25:09;99949.44;;;22.31;44.76
77450;BME280;66536;53.150;18.172;2023-04-24T14:27:35;99948.77;;;22.37;44.30
77450;BME280;66536;53.150;18.172;2023-04-24T14:30:01;99944.42;;;22.38;44.23
77450;BME280;66536;53.150;18.172;2023-04-24T14:32:27;99943.34;;;22.33;44.19
77450;BME280;66536;53.150;18.172;2023-04-24T14:34:54;99942.79;;;22.35;44.32
77450;BME280;66536;53.150;18.172;2023-04-24T14:37:20;99939.98;;;22.36;43.78
77450;BME280;66536;53.150;18.172;2023-04-24T14:39:46;99937.16;;;22.31;42.93
77450;BME280;66536;53.150;18.172;2023-04-24T14:42:12;99936.73;;;22.18;42.92
77450;BME280;66536;53.150;18.172;2023-04-24T14:44:38;99934.30;;;22.14;43.26
77450;BME280;66536;53.150;18.172;2023-04-24T14:47:04;99929.64;;;22.15;43.08
77450;BME280;66536;53.150;18.172;2023-04-24T14:49:31;99926.65;;;22.23;42.95
77450;BME280;66536;53.150;18.172;2023-04-24T14:51:57;99924.48;;;22.34;42.92
77450;BME280;66536;53.150;18.172;2023-04-24T14:54:23;99922.62;;;22.54;42.78
77450;BME280;66536;53.150;18.172;2023-04-24T14:56:49;99920.92;;;22.71;42.29
77450;BME280;66536;53.150;18.172;2023-04-24T14:59:16;99921.64;;;22.83;42.25
77450;BME280;66536;53.150;18.172;2023-04-24T15:01:42;99926.02;;;23.18;41.87
77450;BME280;66536;53.150;18.172;2023-04-24T15:04:08;99923.34;;;23.71;41.39
77450;BME280;66536;53.150;18.172;2023-04-24T15:06:33;99921.75;;;23.75;41.00
77450;BME280;66536;53.150;18.172;2023-04-24T15:09:00;99922.69;;;23.60;41.12
77450;BME280;66536;53.150;18.172;2023-04-24T15:11:27;99920.90;;;23.33;41.18
77450;BME280;66536;53.150;18.172;2023-04-24T15:13:53;99916.15;;;23.01;41.19
77450;BME280;66536;53.150;18.172;2023-04-24T15:16:19;99920.73;;;22.59;41.65
77450;BME280;66536;53.150;18.172;2023-04-24T15:18:46;99919.16;;;22.27;42.16
77450;BME280;66536;53.150;18.172;2023-04-24T15:21:12;99912.79;;;22.03;42.95
77450;BME280;66536;53.150;18.172;2023-04-24T15:23:38;99916.23;;;21.88;43.18
77450;BME280;66536;53.150;18.172;2023-04-24T15:26:07;99913.89;;;21.85;43.52
77450;BME280;66536;53.150;18.172;2023-04-24T15:28:33;99915.26;;;21.81;43.57
77450;BME280;66536;53.150;18.172;2023-04-24T15:31:00;99909.36;;;21.73;43.89
77450;BME280;66536;53.150;18.172;2023-04-24T15:33:26;99914.86;;;21.64;43.99
77450;BME280;66536;53.150;18.172;2023-04-24T15:35:52;99914.48;;;21.50;44.38
77450;BME280;66536;53.150;18.172;2023-04-24T15:38:19;99914.45;;;21.40;44.49
77450;BME280;66536;53.150;18.172;2023-04-24T15:40:45;99911.38;;;21.29;44.74
77450;BME280;66536;53.150;18.172;2023-04-24T15:43:11;99910.91;;;21.17;45.07
77450;BME280;66536;53.150;18.172;2023-04-24T15:45:37;99910.23;;;21.02;45.18
77450;BME280;66536;53.150;18.172;2023-04-24T15:48:03;99913.15;;;20.88;45.67
77450;BME280;66536;53.150;18.172;2023-04-24T15:50:29;99913.15;;;20.80;45.53
77450;BME280;66536;53.150;18.172;2023-04-24T15:52:55;99909.85;;;20.71;45.71
77450;BME280;66536;53.150;18.172;2023-04-24T15:55:21;99911.58;;;20.62;45.90
77450;BME280;66536;53.150;18.172;2023-04-24T15:57:48;99912.66;;;20.58;45.68
77450;BME280;66536;53.150;18.172;2023-04-24T16:00:15;99916.02;;;20.52;45.94
77450;BME280;66536;53.150;18.172;2023-04-24T16:02:41;99913.13;;;20.43;45.86
77450;BME280;66536;53.150;18.172;2023-04-24T16:05:07;99912.18;;;20.37;45.81
77450;BME280;66536;53.150;18.172;2023-04-24T16:07:33;99912.00;;;20.35;45.74
77450;BME280;66536;53.150;18.172;2023-04-24T16:10:00;99915.21;;;20.35;45.68
77450;BME280;66536;53.150;18.172;2023-04-24T16:12:26;99919.83;;;20.48;45.59
77450;BME280;66536;53.150;18.172;2023-04-24T16:14:53;99920.50;;;21.03;45.07
77450;BME280;66536;53.150;18.172;2023-04-24T16:17:19;99919.30;;;21.35;44.66
77450;BME280;66536;53.150;18.172;2023-04-24T16:19:46;99914.55;;;21.15;44.11
77450;BME280;66536;53.150;18.172;2023-04-24T16:22:12;99906.50;;;20.73;44.46
77450;BME280;66536;53.150;18.172;2023-04-24T16:24:38;99898.58;;;20.45;45.29
77450;BME280;66536;53.150;18.172;2023-04-24T16:27:04;99900.66;;;20.31;45.59
77450;BME280;66536;53.150;18.172;2023-04-24T16:29:30;99906.84;;;20.27;45.75
77450;BME280;66536;53.150;18.172;2023-04-24T16:31:57;99909.29;;;20.31;45.59
77450;BME280;66536;53.150;18.172;2023-04-24T16:34:24;99912.86;;;20.37;45.78
77450;BME280;66536;53.150;18.172;2023-04-24T16:36:50;99922.06;;;20.46;45.68
77450;BME280;66536;53.150;18.172;2023-04-24T16:39:16;99922.53;;;20.82;45.44
77450;BME280;66536;53.150;18.172;2023-04-24T16:41:42;99919.98;;;21.10;45.15
77450;BME280;66536;53.150;18.172;2023-04-24T16:44:11;99924.18;;;21.33;44.59
77450;BME280;66536;53.150;18.172;2023-04-24T16:46:38;99919.50;;;21.45;44.43
77450;BME280;66536;53.150;18.172;2023-04-24T16:49:04;99929.36;;;21.33;44.46
77450;BME280;66536;53.150;18.172;2023-04-24T16:51:30;99927.11;;;20.99;45.18
77450;BME280;66536;53.150;18.172;2023-04-24T16:53:57;99937.35;;;20.56;45.94
77450;BME280;66536;53.150;18.172;2023-04-24T16:56:23;99942.55;;;20.14;46.56
77450;BME280;66536;53.150;18.172;2023-04-24T16:58:50;99938.29;;;19.75;47.20
77450;BME280;66536;53.150;18.172;2023-04-24T17:01:16;99947.42;;;19.40;49.83
77450;BME280;66536;53.150;18.172;2023-04-24T17:03:42;99939.71;;;18.97;53.48
77450;BME280;66536;53.150;18.172;2023-04-24T17:06:08;99934.70;;;18.43;56.73
77450;BME280;66536;53.150;18.172;2023-04-24T17:08:34;99937.36;;;17.77;60.59
77450;BME280;66536;53.150;18.172;2023-04-24T17:11:00;99958.71;;;17.15;60.34
77450;BME280;66536;53.150;18.172;2023-04-24T17:13:26;99960.84;;;16.55;61.12
77450;BME280;66536;53.150;18.172;2023-04-24T17:15:52;99966.34;;;16.05;60.25
77450;BME280;66536;53.150;18.172;2023-04-24T17:18:18;99969.38;;;15.67;62.37
77450;BME280;66536;53.150;18.172;2023-04-24T17:20:48;99981.23;;;15.35;64.38
77450;BME280;66536;53.150;18.172;2023-04-24T17:23:15;99987.76;;;15.08;66.30
77450;BME280;66536;53.150;18.172;2023-04-24T17:25:42;99994.88;;;14.88;66.82
77450;BME280;66536;53.150;18.172;2023-04-24T17:28:26;99998.33;;;14.74;67.14
77450;BME280;66536;53.150;18.172;2023-04-24T17:30:53;99996.45;;;14.60;67.00
77450;BME280;66536;53.150;18.172;2023-04-24T17:33:24;99997.92;;;14.50;67.27
77450;BME280;66536;53.150;18.172;2023-04-24T17:35:50;99995.85;;;14.40;67.79
77450;BME280;66536;53.150;18.172;2023-04-24T17:38:17;99996.77;;;14.31;67.20
77450;BME280;66536;53.150;18.172;2023-04-24T17:40:47;99996.69;;;14.25;66.63
77450;BME280;66536;53.150;18.172;2023-04-24T17:43:19;99990.30;;;14.22;66.73
77450;BME280;66536;53.150;18.172;2023-04-24T17:45:49;99984.76;;;14.19;66.69
77450;BME280;66536;53.150;18.172;2023-04-24T17:48:17;99987.08;;;14.17;66.73
77450;BME280;66536;53.150;18.172;2023-04-24T17:50:44;99990.71;;;14.16;66.95
77450;BME280;66536;53.150;18.172;2023-04-24T17:53:11;99986.54;;;14.14;66.93
77450;BME280;66536;53.150;18.172;2023-04-24T17:55:38;99989.21;;;14.12;67.10
77450;BME280;66536;53.150;18.172;2023-04-24T17:58:11;99993.66;;;14.10;67.07
77450;BME280;66536;53.150;18.172;2023-04-24T18:00:38;99988.86;;;14.07;67.14
77450;BME280;66536;53.150;18.172;2023-04-24T18:03:05;99989.46;;;14.05;67.38
77450;BME280;66536;53.150;18.172;2023-04-24T18:05:34;99989.33;;;14.01;67.44